Airfield :
LOGIN :

Register | Disclaimer

   EN    FR    IT 

 










Legend :    VFR   Marginal VFR   IFR   Intensive IFR   Very Intensive IFR
Visi :
Ceiling :
>= 8 km
>= 3000ft
5 to 8 km
1000 to 3000 ft
1500m to 5 km
500 to 1000 ft
800 to 1500m
200 to 500 ft
< 800m
< 200 ft
Symbols :   Thunderstorms  Fog  Heavy snow  Heavy precipitations  Wind > 20 kt
SIGMETs :     Misc.  Thunderstorms  Icing  Turbulence  Mountain Waves  Volcanic Ashes






- Airport Elevation : 74 ft
- IATA code : LRH


LFBH - La Rochelle Ile de Ré

CURRENT METAR :
  • 271730Z AUTO 30016KT 9999 BKN034 BKN040 10/06 Q1015 BECMG 27005KT

EXPIRED METARs :
  • 271700Z AUTO 30017KT 9999 BKN037 11/06 Q1014 BECMG 27005KT
  • 271630Z AUTO 30019KT 9999 BKN036 11/06 Q1013 BECMG 27005KT
  • 271600Z AUTO 30020KT 9999 FEW035 11/07 Q1012 NOSIG
  • 271530Z AUTO 30022KT 9999 BKN036 12/07 Q1012 NOSIG
  • 271500Z AUTO 30023KT 9999 BKN032 12/07 Q1011 NOSIG

TAF TAF LFBH
Valid from the 27 at 18:00 until the 28 at 18:00 UTC


271700Z 2718/2818 30015KT 9999 BKN033
BECMG 2719/2722 VRB02KT
BECMG 2722/2801 18005KT
BECMG 2802/2804 BKN010
TEMPO 2804/2812 2000 -DZ BKN005
TEMPO 2812/2818 24015G25KT
ATIS : +33 5 46 00 13 92



MET'MAP, your aeronautical weather chart ! - Copyright ORBIFLY December 2007 - Disclaimer

ORBIFLY MET'MAP TEAM :

Programming & Development : Alexandra Zaïnal
Concept & original design : Baudouin d'Aumeries
Assistance for programming : Marc-Olivier Méhu
Technical & hardware support : Manuel Goepfert

Contact : metmap@orbifly.com




SOURCES & CREDITS :

   NOAA